Hauptseite
METAR-TAF:

METAR-TAF

Flughäfen :

Flughafen Lübeck

Lübeck, Deutschland

Breite: 53-49N, Länge: 010-42E, Höhe: 14 m

Beobachtung

Neuester Wetterbericht von vor 11 Minuten, um 17:50 UTC
Wind 6 kt aus Südost, variierte zwischen Ost/Südost und Süd
Temperatur 2°C
Luftfeuchtigkeit 80%
Luftdruck 1015 hPa
Sichtweite 10 km oder mehr
Aufgelockert bewölkt in der Höhe von 3700 ft

METAR: EDHL 301750Z 14006KT 110V190 9999 SCT037 02/M01 Q1015

Zeit: 19:01 (18:01 UTC)

Prognose

Neuester Wetterbericht von vor 1 Stunde und 1 Minuten, um 17:00 UTC
Gültige Prognose vom 30 um 18 UTC bis 30 um 21 UTC
Wind 6 kt aus Süd/Südost
Sichtweite 10 km oder mehr
Durchbrochene Bewölkung in der Höhe von 2000 ft
Übergehend zu
vom 30 um 19 UTC bis 30 um 21 UTC
Sichtweite: 4000 m
Durchbrochene Bewölkung in der Höhe von 700 ft
Leichtregen

TAF: EDHL 301700Z 3018/3021 16006KT 9999 BKN020 BECMG 3019/3021 4000 -RA BKN007

Wetterbeobachtungen und Prognosen von mehr als 4000 Flughäfen (METAR und TAF Bericht).

Die verfügbaren Stationen werden durch gelbe und rote Markierungen auf der Karte dargestellt.

Führen Sie die Maus auf sie, um den Namen der Station zu sehen.

Darauf klicken, um die Beobachtung von Wetterbeobachtungen und Prognosen zu sehen.

Um die Karte zu ändern : klicken Sie auf den grünen Tasten mit einem schwarzen Kreuz Zum Vergrößern, auf den grünen Button mit einem Gedankenstrich zu verkleinern, oder auf die grünen Pfeile für benachbarte Karten.


METAR-TAF: